»·PEaware :: N2193G KOTH-KEUG

N2193G :: KOTH-KEUG

FLIGHT INFORMATION

Flight Status: Arrived
Operator: Privately registered:
United States
More flights under this callsign
Pilot: Horacio G. (12762)
Aircraft: MOONEY M-20K/M ENCORE BRAVO
(M20T)
More flights by this aircraft type
Origin: KOTH North Bend Mun
United States
Destination: KEUG Mahlon Sweet
United States
More flights between these airports :: More routes between these airports
Route: +OTH6 OTH V121 EUG
File this flight plan on PilotEdge
Remarks: RV GPS Y 34L
Altitude:
(Current/Filed)
5,000ft
Speed:
(Current/Filed)
168kts
Departed: 23-Dec-17 03:16 PM
Arrived: 23-Dec-17 04:16 PM
Distance/Time
Traveled:
61nm/1:00
Distance/Time
To Go:
Arrived

Flight Plot

Page will automatically refresh every two minutes.

Flight plan parsing failed; only flown route is shown


Map Options




Map Legend


Flown Route
Filed Route
Departure Airport
Arrival Airport
Navaid (VOR, NDB)
Fix

Horizontal Profiles

Position Reports

Time Latitude Longitude Heading Altitude Ground
Speed
23-Dec-17 15:09 43.415043 -124.245065 29 22ft 0kts
23-Dec-17 15:10 43.415043 -124.245065 29 22ft 0kts
23-Dec-17 15:11 43.415043 -124.245065 29 22ft 0kts
23-Dec-17 15:12 43.415043 -124.245065 29 22ft 0kts
23-Dec-17 15:13 43.415043 -124.245065 29 22ft 0kts
23-Dec-17 15:14 43.415043 -124.245065 29 22ft 0kts
23-Dec-17 15:15 43.415043 -124.245065 29 22ft 0kts
23-Dec-17 15:16 43.415043 -124.245065 29 22ft 0kts
23-Dec-17 15:17 43.415043 -124.245065 29 22ft 0kts
23-Dec-17 15:18 43.415202 -124.244852 76 21ft 0kts
23-Dec-17 15:19 43.414036 -124.243021 151 17ft 11kts
23-Dec-17 15:20 43.411467 -124.240985 147 15ft 13kts
23-Dec-17 15:21 43.408983 -124.238821 101 10ft 0kts
23-Dec-17 15:22 43.411372 -124.239519 335 12ft 68kts
23-Dec-17 15:23 43.418147 -124.269777 237 1058ft 139kts
23-Dec-17 15:24 43.425080 -124.286620 72 2391ft 119kts
23-Dec-17 15:25 43.418549 -124.242247 94 3932ft 114kts
23-Dec-17 15:26 43.414417 -124.196162 94 4929ft 147kts
23-Dec-17 15:27 43.433106 -124.145682 42 5007ft 164kts
23-Dec-17 15:28 43.465907 -124.101566 42 5004ft 166kts
23-Dec-17 15:29 43.498888 -124.056951 40 5008ft 165kts
23-Dec-17 15:30 43.532341 -124.013490 45 4996ft 166kts
23-Dec-17 15:31 43.565181 -123.968519 44 5033ft 163kts
23-Dec-17 15:32 43.598682 -123.924635 41 4998ft 166kts
23-Dec-17 15:33 43.632138 -123.880853 41 4991ft 167kts
23-Dec-17 15:34 43.665683 -123.836928 41 4993ft 166kts
23-Dec-17 15:35 43.698910 -123.792613 42 5006ft 165kts
23-Dec-17 15:36 43.732179 -123.748136 43 5002ft 166kts
23-Dec-17 15:37 43.760337 -123.697605 77 4724ft 176kts
23-Dec-17 15:38 43.765622 -123.631492 69 4051ft 161kts
23-Dec-17 15:39 43.767515 -123.571139 82 4019ft 155kts
23-Dec-17 15:40 43.766206 -123.509876 90 3973ft 162kts
23-Dec-17 15:41 43.767374 -123.448514 83 3989ft 164kts
23-Dec-17 15:42 43.770044 -123.384576 83 4004ft 169kts
23-Dec-17 15:43 43.771519 -123.319781 87 3997ft 171kts
23-Dec-17 15:44 43.773254 -123.254596 84 4027ft 167kts
23-Dec-17 15:45 43.802081 -123.216357 9 4000ft 148kts
23-Dec-17 15:46 43.841589 -123.215192 359 3996ft 140kts
23-Dec-17 15:47 43.880264 -123.215664 359 4014ft 138kts
23-Dec-17 15:48 43.914500 -123.216634 2 4068ft 102kts
23-Dec-17 15:49 43.942667 -123.217215 0 3822ft 101kts
23-Dec-17 15:50 43.971582 -123.217672 357 3259ft 105kts
23-Dec-17 15:51 44.000558 -123.218362 5 2613ft 105kts
23-Dec-17 15:52 44.028623 -123.217105 356 2026ft 98kts
23-Dec-17 15:53 44.055079 -123.218067 355 1581ft 94kts
23-Dec-17 15:54 44.081879 -123.218362 358 1002ft 99kts
23-Dec-17 15:55 44.106837 -123.218670 2 562ft 86kts
23-Dec-17 15:56 44.135284 -123.220485 354 1776ft 111kts
23-Dec-17 15:57 44.130083 -123.242000 194 2781ft 154kts
23-Dec-17 15:58 44.096796 -123.274874 226 4017ft 152kts
23-Dec-17 15:59 44.060375 -123.319020 223 4017ft 185kts
23-Dec-17 16:00 44.021841 -123.366050 225 4030ft 181kts
23-Dec-17 16:01 43.985605 -123.416275 228 4007ft 183kts
23-Dec-17 16:02 43.952024 -123.468418 248 4036ft 180kts
23-Dec-17 16:03 43.937386 -123.534734 234 3971ft 185kts
23-Dec-17 16:04 43.914199 -123.520645 68 4019ft 121kts
23-Dec-17 16:05 43.929351 -123.479366 44 4003ft 119kts
23-Dec-17 16:06 43.954610 -123.449451 14 4018ft 119kts
23-Dec-17 16:07 43.956174 -123.488617 221 3984ft 144kts
23-Dec-17 16:08 43.928759 -123.466660 113 3994ft 151kts
23-Dec-17 16:09 43.908327 -123.416102 117 4009ft 149kts
23-Dec-17 16:10 43.887645 -123.365839 120 3973ft 152kts
23-Dec-17 16:11 43.875197 -123.315267 73 3173ft 123kts
23-Dec-17 16:12 43.874947 -123.262307 88 3199ft 143kts
23-Dec-17 16:13 43.884619 -123.219317 4 3253ft 125kts
23-Dec-17 16:14 43.918238 -123.214401 353 3224ft 126kts
23-Dec-17 16:15 43.951654 -123.217408 359 3359ft 96kts
23-Dec-17 16:16 43.979194 -123.218414 1 3041ft 101kts
23-Dec-17 16:17 44.006969 -123.217253 0 2665ft 101kts
23-Dec-17 16:18 44.035115 -123.218298 1 1965ft 101kts
23-Dec-17 16:19 44.062231 -123.218199 0 1368ft 96kts
23-Dec-17 16:20 44.088684 -123.218473 356 866ft 94kts
23-Dec-17 16:21 44.110964 -123.218904 0 473ft 74kts
23-Dec-17 16:22 44.120326 -123.217938 126 364ft 7kts
23-Dec-17 16:23 44.119205 -123.216173 133 365ft 16kts
23-Dec-17 16:24 44.117260 -123.215367 292 367ft 0kts

Navigation Log

Ident Type
Flight plan parsing failed, navigation log unavailable